Time;durP1;ratioP1;P1;durP2;ratioP2;P2;SDS_P1;SDS_P2;PMS_P1;PMS_P2;Temp;Humidity;BMP_temperature;BMP_pressure;BME280_temperature;BME280_humidity;BME280_pressure;Samples;Min_cycle;Max_cycle;Signal;HPM_P1;HPM_P2
2022/09/07 00:01:57;;;;;;;5.20;3.92;;;;;;;23.97;45.83;99469.13;5072650;28;20056;-63
2022/09/07 00:04:24;;;;;;;5.38;3.80;;;;;;;23.98;45.26;99468.09;5053170;28;20045;-64
2022/09/07 00:06:51;;;;;;;8.38;3.53;;;;;;;24.00;45.79;99459.88;5053013;28;20052;-62
2022/09/07 00:09:18;;;;;;;5.47;3.88;;;;;;;24.01;45.67;99454.31;5052883;28;20456;-63
2022/09/07 00:11:45;;;;;;;6.70;3.47;;;;;;;24.02;45.75;99447.91;5052899;28;20059;-65
2022/09/07 00:14:12;;;;;;;12.80;3.83;;;;;;;24.03;45.49;99449.56;5053115;28;20406;-62
2022/09/07 00:16:38;;;;;;;4.95;3.55;;;;;;;24.05;45.67;99444.88;5072182;28;20048;-64
2022/09/07 00:19:05;;;;;;;3.67;3.20;;;;;;;24.06;46.06;99443.84;5072874;28;20390;-62
2022/09/07 00:21:32;;;;;;;6.10;3.78;;;;;;;24.08;46.14;99428.34;5073354;28;20053;-63
2022/09/07 00:23:58;;;;;;;5.68;3.60;;;;;;;24.11;45.95;99432.53;5072501;28;20493;-65
2022/09/07 00:26:29;;;;;;;4.72;3.83;;;;;;;24.11;45.65;99431.72;5072557;28;20052;-62
2022/09/07 00:28:58;;;;;;;8.00;4.07;;;;;;;24.10;45.61;99433.56;5072408;28;20049;-62
2022/09/07 00:31:25;;;;;;;7.53;3.85;;;;;;;24.11;45.72;99437.91;5071174;28;20041;-62
2022/09/07 00:33:55;;;;;;;7.82;3.58;;;;;;;24.10;45.96;99440.78;5071340;28;20539;-62
2022/09/07 00:36:22;;;;;;;5.90;3.70;;;;;;;24.10;45.73;99440.78;5071304;28;20056;-63
2022/09/07 00:38:49;;;;;;;5.70;3.90;;;;;;;24.11;46.39;99453.22;5071965;28;20052;-62
2022/09/07 00:41:17;;;;;;;3.88;3.40;;;;;;;24.11;46.59;99442.47;5072294;28;20049;-62
2022/09/07 00:43:48;;;;;;;8.73;3.20;;;;;;;24.12;46.71;99455.75;5071315;28;20048;-63
2022/09/07 00:46:18;;;;;;;6.20;3.65;;;;;;;24.13;47.46;99452.03;5072578;28;20041;-65
2022/09/07 00:49:04;;;;;;;4.55;3.85;;;;;;;24.14;47.68;99450.19;5070306;28;20041;-63
2022/09/07 00:51:41;;;;;;;5.65;4.15;;;;;;;24.13;48.04;99453.88;5072450;28;20067;-62
2022/09/07 00:54:13;;;;;;;8.23;3.90;;;;;;;24.15;47.96;99441.09;5070989;28;20056;-64
2022/09/07 00:56:42;;;;;;;8.40;3.78;;;;;;;24.13;47.71;99441.28;5070947;28;20048;-62
2022/09/07 00:59:11;;;;;;;5.50;3.80;;;;;;;24.11;47.93;99453.22;5071821;28;20049;-64
2022/09/07 01:01:38;;;;;;;8.60;4.25;;;;;;;24.06;48.08;99469.88;5070734;28;20508;-64
2022/09/07 01:04:06;;;;;;;6.30;4.03;;;;;;;24.02;48.31;99488.22;5071575;28;20043;-62
2022/09/07 01:06:38;;;;;;;6.63;4.30;;;;;;;23.98;49.02;99526.41;5070944;28;20064;-62
2022/09/07 01:09:09;;;;;;;5.20;4.38;;;;;;;23.94;49.03;99555.50;5071678;28;20052;-62
2022/09/07 01:11:37;;;;;;;5.63;4.15;;;;;;;23.91;48.07;99588.13;5070619;28;20049;-62
2022/09/07 01:14:08;;;;;;;6.82;4.88;;;;;;;23.82;48.95;99588.16;5071754;28;20052;-64
2022/09/07 01:16:47;;;;;;;5.05;4.00;;;;;;;23.69;49.92;99606.75;5072024;28;20052;-62
2022/09/07 01:19:28;;;;;;;9.07;4.22;;;;;;;23.59;48.86;99601.63;5071397;28;20485;-61
2022/09/07 01:22:03;;;;;;;4.35;3.95;;;;;;;23.41;50.63;99610.75;5071663;28;20060;-63
2022/09/07 01:24:45;;;;;;;8.98;4.68;;;;;;;23.27;50.93;99623.06;5071397;28;20059;-64
2022/09/07 01:27:18;;;;;;;5.45;4.47;;;;;;;23.08;51.89;99620.75;5071826;28;20040;-63
2022/09/07 01:29:59;;;;;;;7.13;4.85;;;;;;;22.94;50.49;99625.84;5071456;28;20055;-63
2022/09/07 01:33:00;;;;;;;6.38;5.00;;;;;;;22.71;52.22;99614.97;5070352;28;20554;-63
2022/09/07 01:35:54;;;;;;;11.10;5.10;;;;;;;22.59;52.73;99622.56;5071625;28;20044;-62
2022/09/07 01:38:28;;;;;;;4.43;3.67;;;;;;;22.49;53.18;99607.44;5071100;28;20546;-63
2022/09/07 01:41:19;;;;;;;5.43;4.03;;;;;;;22.39;52.94;99609.47;5071273;28;20053;-63
2022/09/07 01:44:23;;;;;;;5.05;3.70;;;;;;;22.34;53.52;99599.25;5071383;28;20062;-63
2022/09/07 01:47:00;;;;;;;6.43;3.78;;;;;;;22.31;53.89;99610.31;5047622;28;20055;-63
2022/09/07 01:49:42;;;;;;;5.97;3.97;;;;;;;22.28;54.01;99612.50;5069471;28;20052;-63
2022/09/07 01:52:36;;;;;;;5.53;4.18;;;;;;;22.25;54.11;99617.16;5069324;28;20048;-64
2022/09/07 01:55:16;;;;;;;6.88;3.83;;;;;;;22.25;54.90;99619.84;5070717;28;20606;-63
2022/09/07 01:57:48;;;;;;;5.53;3.50;;;;;;;22.24;54.65;99625.41;5069875;28;20049;-63
2022/09/07 02:00:18;;;;;;;5.93;3.83;;;;;;;22.23;54.15;99612.97;5070784;28;20447;-63
2022/09/07 02:02:56;;;;;;;6.03;4.05;;;;;;;22.19;55.12;99623.22;5071074;28;20451;-64
2022/09/07 02:05:48;;;;;;;5.10;4.00;;;;;;;22.16;54.87;99615.50;5069747;28;20045;-64
2022/09/07 02:08:20;;;;;;;5.25;4.32;;;;;;;22.18;55.08;99602.78;5070689;28;20049;-62
2022/09/07 02:11:09;;;;;;;4.43;4.03;;;;;;;22.13;54.94;99597.09;5070546;28;20059;-62
2022/09/07 02:13:44;;;;;;;4.85;3.75;;;;;;;22.17;55.75;99585.03;5069681;28;20052;-63
2022/09/07 02:16:17;;;;;;;3.90;3.13;;;;;;;22.17;55.25;99582.34;5069435;28;20147;-63
2022/09/07 02:18:47;;;;;;;8.88;4.25;;;;;;;22.17;55.27;99576.13;5070591;28;20051;-63
2022/09/07 02:21:18;;;;;;;6.43;4.32;;;;;;;22.16;55.67;99586.00;5070713;28;20053;-64
2022/09/07 02:23:53;;;;;;;5.40;4.03;;;;;;;22.16;55.79;99579.81;5069666;28;20363;-62
2022/09/07 02:26:22;;;;;;;5.97;4.00;;;;;;;22.19;55.23;99572.28;5069479;28;20059;-63
2022/09/07 02:28:50;;;;;;;3.88;3.58;;;;;;;22.20;54.95;99581.16;5070145;28;20064;-65
2022/09/07 02:31:16;;;;;;;4.70;3.65;;;;;;;22.21;55.08;99577.47;5068603;28;20045;-62
2022/09/07 02:33:43;;;;;;;4.72;3.40;;;;;;;22.22;55.04;99581.81;5070757;28;20052;-64
2022/09/07 02:36:13;;;;;;;3.55;2.95;;;;;;;22.22;55.29;99579.16;5070589;28;20053;-62
2022/09/07 02:38:40;;;;;;;5.50;3.40;;;;;;;22.23;55.11;99573.63;5070460;28;20052;-63
2022/09/07 02:41:26;;;;;;;4.82;3.78;;;;;;;22.20;55.58;99571.25;5070414;28;20048;-62
2022/09/07 02:43:53;;;;;;;3.25;2.95;;;;;;;22.24;54.90;99569.91;5070416;28;20045;-62
2022/09/07 02:47:17;;;;;;;5.72;3.80;;;;;;;22.19;55.38;99569.59;5069305;28;20040;-63
2022/09/07 02:50:13;;;;;;;4.70;3.40;;;;;;;22.18;55.05;99575.13;5027391;28;20069;-64
2022/09/07 02:52:55;;;;;;;4.10;3.40;;;;;;;22.17;55.69;99576.97;5011487;28;20046;-62
2022/09/07 02:55:44;;;;;;;4.50;3.45;;;;;;;22.16;55.38;99579.81;5055904;28;20400;-63
2022/09/07 02:58:24;;;;;;;2.97;2.70;;;;;;;22.15;55.58;99568.25;5069012;28;20276;-62
2022/09/07 03:01:42;;;;;;;6.53;3.40;;;;;;;22.16;56.08;99564.56;5070160;28;20044;-62
2022/09/07 03:04:18;;;;;;;4.88;3.58;;;;;;;22.21;56.39;99562.22;5050691;28;20115;-62
2022/09/07 03:06:44;;;;;;;4.47;3.78;;;;;;;22.25;55.68;99552.81;5074459;28;20106;-62
2022/09/07 03:09:19;;;;;;;5.68;3.92;;;;;;;22.26;56.49;99548.31;5074071;28;20048;-63
2022/09/07 03:11:46;;;;;;;5.35;3.47;;;;;;;22.31;56.03;99542.44;5073001;28;20059;-63
2022/09/07 03:14:15;;;;;;;5.63;3.78;;;;;;;22.33;56.52;99543.09;5073970;28;20518;-62
2022/09/07 03:16:43;;;;;;;7.38;3.38;;;;;;;22.36;56.23;99537.41;5072850;28;20053;-62
2022/09/07 03:19:09;;;;;;;6.10;3.33;;;;;;;22.37;56.19;99537.25;5073668;28;20114;-62
2022/09/07 03:21:36;;;;;;;4.38;3.72;;;;;;;22.40;56.52;99517.28;5073861;28;20078;-62
2022/09/07 03:24:03;;;;;;;3.88;3.25;;;;;;;22.42;56.24;99509.91;5073890;28;20044;-63
2022/09/07 03:26:29;;;;;;;4.65;3.80;;;;;;;22.43;56.09;99495.47;5073926;28;20508;-62
2022/09/07 03:28:56;;;;;;;7.45;3.28;;;;;;;22.43;56.16;99491.97;5073914;28;20045;-62
2022/09/07 03:31:22;;;;;;;3.17;2.80;;;;;;;22.44;56.04;99490.97;5073710;28;20045;-65
2022/09/07 03:33:49;;;;;;;7.15;2.97;;;;;;;22.43;56.40;99484.75;5073684;28;20091;-62
2022/09/07 03:36:16;;;;;;;4.68;3.10;;;;;;;22.44;56.32;99474.88;5074003;28;20492;-62
2022/09/07 03:38:43;;;;;;;5.85;3.28;;;;;;;22.42;56.46;99469.66;5073483;28;20048;-62
2022/09/07 03:41:09;;;;;;;5.60;3.85;;;;;;;22.42;56.56;99475.03;5073799;28;20048;-62
2022/09/07 03:43:36;;;;;;;22.48;3.80;;;;;;;22.41;56.51;99465.31;5073477;28;20493;-61
2022/09/07 03:46:04;;;;;;;4.53;3.30;;;;;;;22.39;57.05;99457.44;5073400;28;20060;-64
2022/09/07 03:48:33;;;;;;;4.78;3.65;;;;;;;22.39;56.75;99456.63;5071997;28;20053;-64
2022/09/07 03:51:02;;;;;;;4.15;3.75;;;;;;;22.37;56.80;99448.75;5073407;28;20056;-62
2022/09/07 03:53:35;;;;;;;5.13;3.92;;;;;;;22.33;57.27;99451.94;5073580;28;20052;-62
2022/09/07 03:56:04;;;;;;;4.57;3.50;;;;;;;22.30;57.04;99444.22;5072928;28;20052;-62
2022/09/07 03:58:32;;;;;;;5.38;4.43;;;;;;;22.28;56.71;99435.53;5072796;28;20048;-63
2022/09/07 04:01:03;;;;;;;4.28;3.70;;;;;;;22.23;56.55;99420.81;5073263;28;20067;-62
2022/09/07 04:03:30;;;;;;;4.72;3.97;;;;;;;22.20;56.63;99431.88;5072143;28;20390;-62
2022/09/07 04:06:01;;;;;;;5.22;4.05;;;;;;;22.13;57.39;99423.66;5073039;28;20488;-62
2022/09/07 04:08:30;;;;;;;5.72;3.95;;;;;;;22.12;56.87;99427.38;5072943;28;20063;-64
2022/09/07 04:11:01;;;;;;;4.10;3.67;;;;;;;22.07;57.66;99419.00;5072849;28;20041;-62
2022/09/07 04:13:29;;;;;;;5.22;3.90;;;;;;;22.06;57.10;99419.19;5072303;28;20121;-61
2022/09/07 04:15:56;;;;;;;5.30;4.18;;;;;;;22.03;57.25;99414.16;5072309;28;20094;-62
2022/09/07 04:18:23;;;;;;;4.05;3.70;;;;;;;22.00;57.15;99413.50;5071518;28;20052;-62
2022/09/07 04:20:50;;;;;;;6.60;4.78;;;;;;;21.99;57.16;99432.44;5072805;28;20052;-63
2022/09/07 04:23:18;;;;;;;5.50;3.60;;;;;;;21.97;57.07;99446.00;5072972;28;20078;-62
2022/09/07 04:25:49;;;;;;;4.75;4.07;;;;;;;21.92;57.63;99443.00;5072819;28;20052;-62
2022/09/07 04:28:17;;;;;;;5.30;3.83;;;;;;;21.89;57.24;99440.63;5071134;28;20059;-62
2022/09/07 04:30:44;;;;;;;3.95;3.58;;;;;;;21.85;57.22;99437.47;5057407;28;20048;-61
2022/09/07 04:33:12;;;;;;;7.97;4.13;;;;;;;21.82;57.40;99439.63;5072440;28;20058;-63
2022/09/07 04:35:40;;;;;;;5.40;3.97;;;;;;;21.80;57.57;99447.00;5072755;28;20045;-62
2022/09/07 04:38:11;;;;;;;5.53;3.97;;;;;;;21.77;57.40;99442.84;5072435;28;20048;-62
2022/09/07 04:40:37;;;;;;;4.70;3.63;;;;;;;21.74;57.57;99430.63;5072890;28;20469;-62
2022/09/07 04:43:06;;;;;;;4.78;4.10;;;;;;;21.73;57.59;99433.47;5072324;28;20106;-64
2022/09/07 04:45:35;;;;;;;5.70;4.38;;;;;;;21.69;58.12;99432.94;5070752;28;20044;-64
2022/09/07 04:48:02;;;;;;;7.95;3.97;;;;;;;21.68;57.59;99436.59;5072323;28;20805;-62
2022/09/07 04:50:29;;;;;;;4.35;3.63;;;;;;;21.67;57.61;99436.75;5072228;28;20052;-63
2022/09/07 04:52:56;;;;;;;6.22;4.72;;;;;;;21.64;57.54;99443.28;5072377;28;20094;-64
2022/09/07 04:55:22;;;;;;;7.60;4.63;;;;;;;21.63;57.65;99436.28;5072065;28;20525;-64
2022/09/07 04:57:49;;;;;;;5.00;3.58;;;;;;;21.61;57.52;99454.38;5072280;28;20110;-64
2022/09/07 05:00:16;;;;;;;6.63;4.25;;;;;;;21.58;57.35;99446.66;5072038;28;20045;-63
2022/09/07 05:02:42;;;;;;;8.45;4.70;;;;;;;21.56;57.53;99459.34;5071832;28;20362;-63
2022/09/07 05:05:09;;;;;;;4.38;3.97;;;;;;;21.54;57.61;99456.03;5071852;28;20040;-63
2022/09/07 05:07:35;;;;;;;9.13;4.10;;;;;;;21.50;57.41;99447.50;5071569;28;20048;-63
2022/09/07 05:10:02;;;;;;;5.07;3.67;;;;;;;21.49;57.62;99440.44;5071895;28;20057;-63
2022/09/07 05:12:29;;;;;;;5.22;4.00;;;;;;;21.47;57.55;99439.78;5072003;28;20480;-63
2022/09/07 05:14:56;;;;;;;5.10;3.60;;;;;;;21.44;57.92;99432.94;5071869;28;20056;-63
2022/09/07 05:17:23;;;;;;;4.30;3.30;;;;;;;21.43;57.68;99436.63;5071824;28;20064;-64
2022/09/07 05:19:49;;;;;;;6.57;3.85;;;;;;;21.42;57.51;99428.75;5071387;28;20500;-64
2022/09/07 05:22:16;;;;;;;5.60;3.92;;;;;;;21.40;57.26;99436.94;5071406;28;20057;-63
2022/09/07 05:24:42;;;;;;;3.88;3.50;;;;;;;21.39;57.44;99439.78;5071428;28;20052;-63
2022/09/07 05:27:09;;;;;;;4.22;3.75;;;;;;;21.37;57.77;99437.25;5071434;28;20060;-64
2022/09/07 05:29:35;;;;;;;6.18;4.13;;;;;;;21.36;57.95;99435.59;5071359;28;20052;-63
2022/09/07 05:32:22;;;;;;;5.25;3.92;;;;;;;21.35;57.81;99444.66;5071812;28;20072;-63
2022/09/07 05:34:49;;;;;;;7.82;4.43;;;;;;;21.33;57.83;99449.31;5071273;28;20056;-64
2022/09/07 05:37:18;;;;;;;4.82;4.40;;;;;;;21.32;58.08;99464.56;5071286;28;20044;-63
2022/09/07 05:39:45;;;;;;;5.28;4.03;;;;;;;21.32;58.19;99467.22;5070949;28;20114;-63
2022/09/07 05:42:12;;;;;;;5.15;4.00;;;;;;;21.32;58.41;99469.06;5071402;28;20045;-63
2022/09/07 05:44:39;;;;;;;5.40;3.85;;;;;;;21.31;57.77;99467.38;5071695;28;20469;-62
2022/09/07 05:47:08;;;;;;;7.22;4.45;;;;;;;21.31;58.17;99470.06;5071059;28;20055;-63
2022/09/07 05:49:35;;;;;;;5.85;4.40;;;;;;;21.30;58.07;99476.44;5071125;28;20055;-64
2022/09/07 05:52:02;;;;;;;5.10;4.57;;;;;;;21.28;58.29;99476.59;5070028;28;20064;-62
2022/09/07 05:54:28;;;;;;;5.80;4.45;;;;;;;21.29;58.46;99482.75;5070893;28;20097;-64
2022/09/07 05:56:55;;;;;;;6.45;4.40;;;;;;;21.28;58.52;99475.75;5071074;28;20563;-62
2022/09/07 05:59:21;;;;;;;8.32;6.40;;;;;;;21.28;58.51;99475.75;5070694;28;20094;-63
2022/09/07 06:01:48;;;;;;;10.13;6.47;;;;;;;21.27;59.04;99479.44;5070963;28;20052;-62
2022/09/07 06:04:14;;;;;;;6.82;6.13;;;;;;;21.26;59.11;99488.47;5071086;28;20076;-62
2022/09/07 06:06:41;;;;;;;7.53;6.70;;;;;;;21.25;59.26;99490.28;5071162;28;20052;-64
2022/09/07 06:09:24;;;;;;;7.45;6.68;;;;;;;21.26;59.52;99480.44;5070518;28;20056;-64
2022/09/07 06:11:55;;;;;;;7.47;6.07;;;;;;;21.25;59.39;99484.09;5070349;28;20155;-62
2022/09/07 06:14:22;;;;;;;6.20;5.60;;;;;;;21.26;59.30;99491.16;5070777;28;20048;-64
2022/09/07 06:16:48;;;;;;;8.57;6.55;;;;;;;21.26;60.15;99491.16;5069676;28;20458;-64
2022/09/07 06:19:15;;;;;;;6.65;6.05;;;;;;;21.27;60.23;99503.53;5070451;28;20047;-63
2022/09/07 06:21:42;;;;;;;7.53;6.28;;;;;;;21.29;60.13;99493.47;5070624;28;20052;-63
2022/09/07 06:24:08;;;;;;;6.95;6.25;;;;;;;21.32;60.13;99487.78;5070711;28;20044;-64
2022/09/07 06:26:35;;;;;;;8.57;6.47;;;;;;;21.34;60.45;99485.78;5070440;28;20448;-62
2022/09/07 06:29:02;;;;;;;9.90;5.80;;;;;;;21.37;60.21;99490.00;5069085;28;20122;-63
2022/09/07 06:31:29;;;;;;;6.45;5.85;;;;;;;21.40;60.26;99490.50;5070407;28;20052;-62
2022/09/07 06:33:56;;;;;;;7.38;6.28;;;;;;;21.44;60.36;99496.34;5070558;28;20381;-62
2022/09/07 06:36:26;;;;;;;6.72;6.03;;;;;;;21.47;60.57;99507.59;5070356;28;20052;-63
2022/09/07 06:38:54;;;;;;;7.15;6.00;;;;;;;21.52;60.69;99504.38;5069787;28;20062;-65
2022/09/07 06:41:23;;;;;;;6.82;6.13;;;;;;;21.56;60.41;99507.56;5069055;28;20048;-62
2022/09/07 06:44:11;;;;;;;10.40;6.47;;;;;;;21.62;60.46;99509.59;5070317;28;20049;-63
2022/09/07 06:46:38;;;;;;;8.32;5.22;;;;;;;21.69;60.66;99515.97;5070305;28;20072;-63
2022/09/07 06:49:25;;;;;;;7.75;6.10;;;;;;;21.78;60.80;99521.34;5053525;28;20080;-63
2022/09/07 06:51:52;;;;;;;7.10;5.35;;;;;;;21.86;61.20;99521.34;5069096;28;20044;-63
2022/09/07 06:54:18;;;;;;;7.55;5.40;;;;;;;21.94;60.84;99524.03;5069120;28;20053;-64
2022/09/07 06:57:07;;;;;;;8.63;5.20;;;;;;;22.06;60.70;99523.69;5070268;28;20044;-63
2022/09/07 06:59:35;;;;;;;7.13;5.85;;;;;;;22.17;60.75;99527.88;5070002;28;20051;-62
2022/09/07 07:02:03;;;;;;;5.97;5.47;;;;;;;22.25;60.64;99526.00;5068737;28;20506;-63
2022/09/07 07:04:29;;;;;;;5.90;5.30;;;;;;;22.33;60.03;99519.81;5068894;28;20511;-63
2022/09/07 07:06:57;;;;;;;6.60;4.68;;;;;;;22.41;59.90;99523.47;5069968;28;20040;-62
2022/09/07 07:09:23;;;;;;;7.97;5.05;;;;;;;22.46;59.77;99526.50;5070248;28;20114;-64
2022/09/07 07:11:50;;;;;;;6.68;4.93;;;;;;;22.49;59.54;99516.25;5070166;28;20048;-62
2022/09/07 07:14:17;;;;;;;6.43;4.57;;;;;;;22.55;59.39;99524.66;5070175;28;20052;-62
2022/09/07 07:16:43;;;;;;;7.18;5.00;;;;;;;22.58;59.35;99524.31;5070110;28;20056;-62
2022/09/07 07:19:10;;;;;;;6.80;4.95;;;;;;;22.60;59.13;99522.28;5070022;28;20056;-63
2022/09/07 07:21:36;;;;;;;8.52;4.93;;;;;;;22.64;59.24;99524.47;5070336;28;20056;-62
2022/09/07 07:24:23;;;;;;;5.82;4.53;;;;;;;22.68;58.89;99519.59;5070460;28;20056;-62
2022/09/07 07:26:50;;;;;;;9.88;4.63;;;;;;;22.69;58.66;99529.28;5070171;28;20059;-66
2022/09/07 07:29:16;;;;;;;4.70;4.30;;;;;;;22.71;58.85;99531.81;5069841;28;20048;-64
2022/09/07 07:31:45;;;;;;;5.88;4.45;;;;;;;22.73;59.43;99535.19;5070059;28;20040;-64
2022/09/07 07:34:12;;;;;;;5.82;4.28;;;;;;;22.76;59.45;99541.03;5070133;28;20041;-64
2022/09/07 07:36:39;;;;;;;5.43;4.68;;;;;;;22.83;59.40;99543.03;5070079;28;20055;-63
2022/09/07 07:39:06;;;;;;;11.15;4.57;;;;;;;22.88;59.31;99544.16;5070153;28;20049;-65
2022/09/07 07:41:32;;;;;;;5.18;4.25;;;;;;;22.95;58.95;99541.63;5069753;28;20443;-63
2022/09/07 07:44:19;;;;;;;12.23;4.97;;;;;;;23.03;58.84;99543.44;5068765;28;20053;-63
2022/09/07 07:46:49;;;;;;;10.95;4.63;;;;;;;23.09;59.29;99550.78;5069926;28;20460;-66
2022/09/07 07:49:16;;;;;;;6.45;4.50;;;;;;;23.17;58.37;99544.53;5068967;28;20052;-63
2022/09/07 07:51:43;;;;;;;9.45;4.28;;;;;;;23.22;58.72;99552.09;5073447;28;20052;-63
2022/09/07 07:54:32;;;;;;;6.25;3.83;;;;;;;23.29;58.04;99563.81;5073108;28;20488;-62
2022/09/07 07:56:59;;;;;;;8.68;4.03;;;;;;;23.35;57.97;99563.13;5073122;28;20106;-62
2022/09/07 07:59:25;;;;;;;5.18;4.32;;;;;;;23.38;57.33;99553.88;5073248;28;20566;-62
2022/09/07 08:01:52;;;;;;;5.20;4.18;;;;;;;23.39;57.58;99553.69;5073168;28;20072;-64
2022/09/07 08:04:19;;;;;;;4.88;3.97;;;;;;;23.41;58.02;99557.03;5073167;28;20044;-65
2022/09/07 08:06:45;;;;;;;6.97;4.03;;;;;;;23.43;58.07;99556.84;5073190;28;20113;-63
2022/09/07 08:09:12;;;;;;;5.63;3.90;;;;;;;23.49;58.25;99563.38;5073164;28;20080;-63
2022/09/07 08:11:39;;;;;;;4.32;3.47;;;;;;;23.54;57.90;99563.66;5072565;28;20505;-63
2022/09/07 08:14:07;;;;;;;4.75;4.03;;;;;;;23.60;57.59;99562.13;5071154;28;20095;-62
2022/09/07 08:16:35;;;;;;;4.13;3.75;;;;;;;23.67;57.75;99563.09;5073147;28;20136;-64
2022/09/07 08:19:02;;;;;;;5.35;4.05;;;;;;;23.74;58.07;99561.34;5072723;28;20048;-63
2022/09/07 08:21:28;;;;;;;4.00;3.58;;;;;;;23.84;58.09;99552.25;5073258;28;20126;-64
2022/09/07 08:23:55;;;;;;;4.03;3.63;;;;;;;23.93;57.80;99559.22;5073020;28;20044;-65
2022/09/07 08:26:22;;;;;;;12.93;4.60;;;;;;;24.02;57.52;99565.34;5072809;28;20084;-64
2022/09/07 08:28:48;;;;;;;5.35;4.90;;;;;;;24.10;56.56;99565.31;5072014;28;20492;-64
2022/09/07 08:31:16;;;;;;;4.82;4.43;;;;;;;24.17;56.86;99565.44;5072626;28;20135;-64
2022/09/07 08:33:43;;;;;;;7.07;4.75;;;;;;;24.22;56.35;99568.41;5071546;28;20044;-62
2022/09/07 08:36:30;;;;;;;4.75;4.15;;;;;;;24.24;56.06;99563.69;5073074;28;20057;-63
2022/09/07 08:38:57;;;;;;;4.38;3.97;;;;;;;24.35;56.11;99562.41;5072697;28;20554;-66
2022/09/07 08:41:33;;;;;;;5.28;4.20;;;;;;;24.38;56.65;99577.34;5072595;28;20627;-64
2022/09/07 08:44:09;;;;;;;5.28;4.45;;;;;;;24.47;55.65;99578.94;5071259;28;20516;-63
2022/09/07 08:46:44;;;;;;;4.68;4.28;;;;;;;24.55;55.69;99578.84;5072317;28;20040;-64
2022/09/07 08:49:32;;;;;;;6.15;4.93;;;;;;;24.56;55.86;99582.41;5071162;28;20048;-63
2022/09/07 08:52:24;;;;;;;4.43;3.92;;;;;;;24.62;55.83;99583.53;5072663;28;20087;-62
2022/09/07 08:55:13;;;;;;;4.75;4.35;;;;;;;24.69;55.28;99574.50;5065666;28;20134;-63
2022/09/07 08:57:45;;;;;;;7.88;3.83;;;;;;;24.77;54.00;99583.50;5072783;28;20392;-63
2022/09/07 09:00:15;;;;;;;6.95;3.97;;;;;;;24.77;54.21;99583.50;5072243;28;20041;-63
2022/09/07 09:02:45;;;;;;;6.43;4.78;;;;;;;24.72;54.36;99584.91;5072066;28;20092;-63
2022/09/07 09:05:49;;;;;;;4.90;4.40;;;;;;;24.65;54.04;99591.19;5071102;28;20045;-63
2022/09/07 09:08:29;;;;;;;5.50;4.93;;;;;;;24.64;54.41;99590.38;5071699;28;20059;-63
2022/09/07 09:10:59;;;;;;;5.05;4.07;;;;;;;24.64;55.12;99594.94;5070644;28;20538;-65
2022/09/07 09:13:35;;;;;;;6.70;5.15;;;;;;;24.61;54.79;99585.38;5071878;28;20386;-64
2022/09/07 09:16:34;;;;;;;5.95;4.65;;;;;;;24.62;55.18;99583.53;5072218;28;20110;-64
2022/09/07 09:19:22;;;;;;;4.90;4.50;;;;;;;24.65;54.86;99589.34;5070337;28;20519;-63
2022/09/07 09:22:01;;;;;;;6.07;5.47;;;;;;;24.73;54.55;99594.66;5070200;28;20114;-63
2022/09/07 09:24:36;;;;;;;5.50;5.00;;;;;;;24.82;54.63;99592.69;5071845;28;20040;-64
2022/09/07 09:27:02;;;;;;;6.25;5.65;;;;;;;24.92;54.71;99584.38;5071493;28;20551;-66
2022/09/07 09:29:29;;;;;;;6.40;5.80;;;;;;;25.01;53.97;99587.81;5071365;28;20101;-63
2022/09/07 09:31:55;;;;;;;6.38;5.78;;;;;;;25.06;53.20;99579.16;5071323;28;20127;-63
2022/09/07 09:34:22;;;;;;;7.00;6.32;;;;;;;25.09;52.96;99595.78;5071366;28;20140;-63
2022/09/07 09:36:54;;;;;;;5.78;5.28;;;;;;;25.11;53.10;99604.53;5071099;28;20040;-64
2022/09/07 09:39:31;;;;;;;5.18;4.70;;;;;;;25.07;53.12;99597.84;5071110;28;20128;-63
2022/09/07 09:42:21;;;;;;;6.22;5.72;;;;;;;25.08;52.72;99598.69;5071345;28;20091;-63
2022/09/07 09:44:48;;;;;;;6.20;5.70;;;;;;;25.06;52.98;99590.78;5071154;28;20413;-63
2022/09/07 09:47:32;;;;;;;6.90;6.30;;;;;;;25.01;52.44;99590.53;5070078;28;20504;-64
2022/09/07 09:50:06;;;;;;;7.72;6.95;;;;;;;24.97;52.98;99602.69;5071015;28;20393;-63
2022/09/07 09:52:35;;;;;;;7.85;7.15;;;;;;;24.93;53.47;99601.38;5070873;28;20053;-65
2022/09/07 09:55:36;;;;;;;7.78;7.07;;;;;;;24.85;53.09;99602.28;5071044;28;20106;-63
2022/09/07 09:58:06;;;;;;;10.20;9.30;;;;;;;24.84;52.96;99600.63;5071127;28;20447;-65
2022/09/07 10:01:00;;;;;;;10.02;8.30;;;;;;;24.74;53.10;99603.56;5070824;28;20492;-62
2022/09/07 10:03:48;;;;;;;10.20;9.40;;;;;;;24.67;53.71;99594.56;5070807;28;20067;-63
2022/09/07 10:06:26;;;;;;;9.65;8.65;;;;;;;24.59;54.04;99595.47;5069897;28;20056;-63
2022/09/07 10:09:00;;;;;;;11.20;10.15;;;;;;;24.50;54.90;99607.31;5070506;28;20098;-63
2022/09/07 10:11:46;;;;;;;10.68;9.68;;;;;;;24.44;54.64;99600.81;5069303;28;20048;-62
2022/09/07 10:14:40;;;;;;;10.25;9.35;;;;;;;24.44;54.44;99592.75;5069594;28;20049;-63
2022/09/07 10:17:16;;;;;;;9.25;8.35;;;;;;;24.38;54.28;99591.66;5069588;28;20052;-64
2022/09/07 10:19:43;;;;;;;8.02;7.22;;;;;;;24.38;54.98;99588.97;5070710;28;20131;-63
2022/09/07 10:22:32;;;;;;;9.35;8.32;;;;;;;24.34;55.18;99585.78;5070507;28;20095;-64
2022/09/07 10:25:00;;;;;;;9.23;8.38;;;;;;;24.47;55.35;99592.38;5070755;28;20067;-64
2022/09/07 10:27:32;;;;;;;9.35;8.48;;;;;;;24.56;56.69;99591.28;5070964;28;20084;-64
2022/09/07 10:30:00;;;;;;;10.15;9.27;;;;;;;24.70;56.18;99581.56;5070395;28;20045;-63
2022/09/07 10:32:57;;;;;;;10.63;9.43;;;;;;;24.81;54.75;99588.34;5070443;28;20091;-63
2022/09/07 10:35:38;;;;;;;10.25;8.98;;;;;;;24.96;54.19;99584.84;5070709;28;20049;-63
2022/09/07 10:38:20;;;;;;;9.93;9.10;;;;;;;25.03;54.12;99588.47;5070298;28;20078;-64
2022/09/07 10:40:55;;;;;;;11.50;10.50;;;;;;;25.10;53.71;99586.69;5070387;28;20048;-63
2022/09/07 10:43:40;;;;;;;10.85;9.95;;;;;;;25.13;53.83;99592.72;5067904;28;20472;-63
2022/09/07 10:46:34;;;;;;;11.52;10.43;;;;;;;25.13;53.70;99596.25;5070454;28;20131;-66
2022/09/07 10:49:33;;;;;;;9.38;8.45;;;;;;;25.16;53.84;99589.66;5070037;28;20048;-64
2022/09/07 10:52:22;;;;;;;9.82;8.07;;;;;;;25.15;53.57;99575.34;5070671;28;20051;-63
2022/09/07 10:54:55;;;;;;;8.63;7.72;;;;;;;25.20;53.17;99564.03;5070404;28;20477;-62
2022/09/07 10:57:35;;;;;;;8.10;7.28;;;;;;;25.22;53.18;99557.41;5070257;28;20086;-62
2022/09/07 11:00:11;;;;;;;8.30;7.50;;;;;;;25.24;52.98;99549.16;5069117;28;20102;-64
2022/09/07 11:02:56;;;;;;;8.32;7.53;;;;;;;25.27;53.08;99548.78;5070334;28;20052;-63
2022/09/07 11:05:55;;;;;;;7.80;7.10;;;;;;;25.28;53.26;99550.44;5069009;28;20055;-64
2022/09/07 11:08:48;;;;;;;7.03;6.43;;;;;;;25.29;53.14;99556.66;5069726;28;20127;-63
2022/09/07 11:11:48;;;;;;;8.65;6.93;;;;;;;25.32;53.03;99562.50;5049928;28;20091;-64
2022/09/07 11:14:41;;;;;;;6.88;6.05;;;;;;;25.40;53.34;99568.78;5050272;28;20049;-62
2022/09/07 11:17:16;;;;;;;7.03;6.13;;;;;;;25.46;53.18;99568.06;5048940;28;20049;-63
2022/09/07 11:20:13;;;;;;;6.57;5.78;;;;;;;25.52;53.65;99567.28;5050060;28;20049;-63
2022/09/07 11:22:48;;;;;;;6.75;6.15;;;;;;;25.62;52.94;99573.25;5064966;28;20084;-64
2022/09/07 11:25:24;;;;;;;6.93;6.32;;;;;;;25.71;53.17;99565.03;5073754;28;20088;-64
2022/09/07 11:28:00;;;;;;;;;;;;;;;25.80;53.50;99565.72;5073117;28;20045;-63
2022/09/07 11:30:35;;;;;;;8.23;5.75;;;;;;;25.97;52.71;99567.13;5073661;28;19963;-63
2022/09/07 11:33:20;;;;;;;5.88;5.38;;;;;;;26.12;53.18;99550.88;5073705;28;20476;-63
2022/09/07 11:36:10;;;;;;;5.88;5.38;;;;;;;26.35;53.09;99555.22;5073748;28;20052;-62
2022/09/07 11:38:43;;;;;;;5.40;4.90;;;;;;;26.60;51.75;99579.06;5073218;28;20127;-64
2022/09/07 11:41:18;;;;;;;5.30;4.80;;;;;;;26.78;51.31;99566.91;5073543;28;20573;-64
2022/09/07 11:43:52;;;;;;;5.68;5.18;;;;;;;26.92;50.74;99571.34;5073721;28;20135;-63
2022/09/07 11:46:36;;;;;;;5.55;5.07;;;;;;;26.97;50.46;99570.78;5072732;28;20075;-63
2022/09/07 11:49:10;;;;;;;5.97;5.40;;;;;;;27.01;50.35;99566.66;5072346;28;20052;-63
2022/09/07 11:51:41;;;;;;;5.72;5.18;;;;;;;27.00;50.54;99556.03;5073883;28;20439;-63
2022/09/07 11:54:26;;;;;;;7.00;5.30;;;;;;;26.93;50.10;99555.97;5072127;28;20045;-63
2022/09/07 11:57:08;;;;;;;6.07;4.90;;;;;;;26.91;49.55;99555.38;5072113;28;20070;-64
2022/09/07 12:00:05;;;;;;;6.15;5.05;;;;;;;26.84;49.43;99568.84;5073496;28;20131;-63
2022/09/07 12:03:10;;;;;;;5.35;4.85;;;;;;;26.76;49.53;99567.09;5073382;28;20052;-63
2022/09/07 12:06:09;;;;;;;8.07;5.18;;;;;;;26.71;49.42;99566.88;5073528;28;20044;-63